createdAt,value
2018-06-25T09:12:05.579Z,22.8
2018-06-25T09:12:55.837Z,22.8
2018-06-25T09:13:46.457Z,22.8
2018-06-25T09:14:36.215Z,22.8
2018-06-25T09:15:28.739Z,22.8
2018-06-25T09:16:17.140Z,22.8
2018-06-25T09:17:06.987Z,22.8
2018-06-25T09:17:56.963Z,22.8
2018-06-25T09:18:46.756Z,22.8
2018-06-25T09:19:37.360Z,22.8
2018-06-25T09:20:27.469Z,22.8
2018-06-25T09:21:16.944Z,22.8
2018-06-25T09:22:08.029Z,22.8
2018-06-25T09:22:56.528Z,22.8
2018-06-25T09:23:47.476Z,22.8
2018-06-25T09:24:37.453Z,22.8
2018-06-25T09:25:27.583Z,22.8
2018-06-25T09:26:17.589Z,22.8
2018-06-25T09:27:07.138Z,22.8
2018-06-25T09:27:57.762Z,22.8
2018-06-25T09:28:48.076Z,22.8
2018-06-25T09:29:38.188Z,22.8
2018-06-25T09:30:27.374Z,22.8
2018-06-25T09:31:17.460Z,22.8
2018-06-25T09:32:07.814Z,22.8
2018-06-25T09:32:58.116Z,22.8
2018-06-25T09:33:47.078Z,22.8
2018-06-25T09:34:38.591Z,22.8
2018-06-25T09:35:29.407Z,22.8
2018-06-25T09:36:18.640Z,22.8
2018-06-25T09:37:07.941Z,22.8
2018-06-25T09:37:57.924Z,22.8
2018-06-25T09:38:48.034Z,22.8
2018-06-25T09:39:38.695Z,22.8
2018-06-25T09:40:28.105Z,22.8
2018-06-25T09:41:19.608Z,22.8
2018-06-25T09:42:08.864Z,22.8
2018-06-25T09:42:58.684Z,22.8
2018-06-25T09:43:48.571Z,22.8
2018-06-25T09:44:39.032Z,22.8
2018-06-25T09:45:28.538Z,22.8
2018-06-25T09:46:18.901Z,22.8
2018-06-25T09:47:10.172Z,22.8
2018-06-25T09:47:59.289Z,22.8
2018-06-25T09:48:49.080Z,22.8
2018-06-25T09:49:39.148Z,22.8
2018-06-25T09:50:29.512Z,22.8
2018-06-25T09:51:18.982Z,22.8
2018-06-25T09:52:09.596Z,22.8
2018-06-25T09:52:59.965Z,22.8
2018-06-25T09:53:49.748Z,22.8
2018-06-25T09:54:39.102Z,22.8
2018-06-25T09:55:30.114Z,22.8
2018-06-25T09:56:19.360Z,22.8
2018-06-25T09:57:09.700Z,22.8
2018-06-25T09:58:00.027Z,22.8
2018-06-25T09:58:50.162Z,22.8
2018-06-25T09:59:39.632Z,22.8
2018-06-25T10:00:30.505Z,22.8
2018-06-25T10:01:20.302Z,22.8
2018-06-25T10:02:10.075Z,22.8
2018-06-25T10:03:00.113Z,22.8
2018-06-25T10:03:50.505Z,22.9
2018-06-25T10:04:40.557Z,22.8
2018-06-25T10:05:30.613Z,22.8
2018-06-25T10:06:20.972Z,22.8
2018-06-25T10:07:10.220Z,22.8
2018-06-25T10:08:01.034Z,22.8
2018-06-25T10:08:50.637Z,22.8
2018-06-25T10:09:40.366Z,22.8
2018-06-25T10:10:30.973Z,22.8
2018-06-25T10:11:21.341Z,22.9
2018-06-25T10:12:10.841Z,22.9
2018-06-25T10:13:01.190Z,22.8
2018-06-25T10:13:51.198Z,22.8
2018-06-25T10:14:41.262Z,22.9
2018-06-25T10:15:31.097Z,22.8
2018-06-25T10:16:21.159Z,22.9
2018-06-25T10:17:11.464Z,22.8
2018-06-25T10:18:01.603Z,22.9
2018-06-25T10:18:51.651Z,22.9
2018-06-25T10:19:42.043Z,22.8
2018-06-25T10:20:32.060Z,22.8
2018-06-25T10:21:22.754Z,22.8
2018-06-25T10:22:11.621Z,22.8
2018-06-25T10:23:02.274Z,22.8
2018-06-25T10:23:51.469Z,22.9
2018-06-25T10:24:42.089Z,22.8
2018-06-25T10:25:31.888Z,22.9
2018-06-25T10:26:21.985Z,22.9
2018-06-25T10:27:12.394Z,22.9
2018-06-25T10:28:01.365Z,22.9
2018-06-25T10:28:52.150Z,22.9
2018-06-25T10:29:42.188Z,22.9
2018-06-25T10:30:31.998Z,22.9
2018-06-25T10:31:22.915Z,22.9
2018-06-25T10:32:12.946Z,22.9
2018-06-25T10:33:02.365Z,22.9
2018-06-25T10:33:52.808Z,22.9
2018-06-25T10:34:43.574Z,22.9
2018-06-25T10:35:33.203Z,22.9
2018-06-25T10:36:22.992Z,22.9
2018-06-25T10:37:12.755Z,22.9
2018-06-25T10:38:03.449Z,22.9
2018-06-25T10:38:52.327Z,22.9
2018-06-25T10:39:43.520Z,22.9
2018-06-25T10:40:33.273Z,22.9
2018-06-25T10:41:23.632Z,22.9
2018-06-25T10:42:15.136Z,22.9
2018-06-25T10:43:03.515Z,22.9
2018-06-25T10:43:53.526Z,22.9
2018-06-25T10:44:43.586Z,22.9
2018-06-25T10:45:33.984Z,22.9
2018-06-25T10:46:23.474Z,22.9
2018-06-25T10:47:13.228Z,22.9
2018-06-25T10:48:03.884Z,22.9
2018-06-25T10:48:53.408Z,22.9
2018-06-25T10:49:44.020Z,22.9
2018-06-25T10:50:33.480Z,22.9
2018-06-25T10:51:23.365Z,22.9
2018-06-25T10:52:13.917Z,22.9
2018-06-25T10:53:04.269Z,22.9
2018-06-25T10:53:53.437Z,22.9
2018-06-25T10:54:44.036Z,22.9
2018-06-25T10:55:34.412Z,22.9
2018-06-25T10:56:24.066Z,22.9
2018-06-25T10:57:13.989Z,22.9
2018-06-25T10:58:04.718Z,23
2018-06-25T10:58:54.935Z,23
2018-06-25T10:59:46.203Z,22.9
2018-06-25T11:00:34.416Z,22.9
2018-06-25T11:01:24.888Z,23
2018-06-25T11:02:15.180Z,22.9
2018-06-25T11:03:05.020Z,23
2018-06-25T11:03:55.334Z,23
2018-06-25T11:04:45.135Z,23
2018-06-25T11:05:35.164Z,23
2018-06-25T11:06:24.762Z,23
2018-06-25T11:07:17.646Z,23
2018-06-25T11:08:04.616Z,23
2018-06-25T11:08:55.475Z,23
2018-06-25T11:09:45.279Z,22.9
2018-06-25T11:10:35.370Z,23
2018-06-25T11:11:25.103Z,22.9
2018-06-25T11:12:14.978Z,22.9
2018-06-25T11:13:07.086Z,22.9
2018-06-25T11:13:55.115Z,22.9
2018-06-25T11:14:45.067Z,22.9
2018-06-25T11:15:36.034Z,22.9
2018-06-25T11:16:25.473Z,22.9
2018-06-25T11:17:15.887Z,22.9
2018-06-25T11:18:06.144Z,22.9
2018-06-25T11:18:56.501Z,22.9
2018-06-25T11:19:45.607Z,22.9
2018-06-25T11:20:35.611Z,22.9
2018-06-25T11:21:26.466Z,22.9
2018-06-25T11:22:15.916Z,22.9
2018-06-25T11:23:06.541Z,22.9
2018-06-25T11:23:56.145Z,22.9
2018-06-25T11:24:46.115Z,22.9
2018-06-25T11:25:36.722Z,22.9
2018-06-25T11:26:26.582Z,22.9
2018-06-25T11:27:16.873Z,22.9
2018-06-25T11:28:06.664Z,22.9
2018-06-25T11:28:56.425Z,22.8
2018-06-25T11:29:46.787Z,22.9
2018-06-25T11:30:36.541Z,22.9
2018-06-25T11:31:27.440Z,22.9
2018-06-25T11:32:17.534Z,22.9
2018-06-25T11:33:07.575Z,22.9
2018-06-25T11:33:56.559Z,22.9
2018-06-25T11:34:47.782Z,22.8
2018-06-25T11:35:37.228Z,22.8
2018-06-25T11:36:27.291Z,22.8
2018-06-25T11:37:17.927Z,22.8
2018-06-25T11:38:07.700Z,22.8
2018-06-25T11:38:57.551Z,22.9
2018-06-25T11:39:47.832Z,22.9
2018-06-25T11:40:37.355Z,22.8
2018-06-25T11:41:27.953Z,22.8
2018-06-25T11:42:18.015Z,22.9
2018-06-25T11:43:08.082Z,22.8
2018-06-25T11:43:58.136Z,22.8
2018-06-25T11:44:48.214Z,22.8
2018-06-25T11:45:38.003Z,22.8
2018-06-25T11:46:28.351Z,22.8
2018-06-25T11:47:17.878Z,22.8
2018-06-25T11:48:07.283Z,22.8
2018-06-25T11:48:57.986Z,22.8
2018-06-25T11:49:48.594Z,22.8
2018-06-25T11:50:38.076Z,22.8
2018-06-25T11:51:28.462Z,22.8
2018-06-25T11:52:18.546Z,22.8
2018-06-25T11:53:08.023Z,22.8
2018-06-25T11:53:58.148Z,22.8
2018-06-25T11:54:49.221Z,22.8
2018-06-25T11:55:38.510Z,22.8
2018-06-25T11:56:28.433Z,22.8
2018-06-25T11:57:17.485Z,22.8
2018-06-25T11:58:08.574Z,22.8
2018-06-25T11:58:58.243Z,22.8
2018-06-25T11:59:48.535Z,22.8
2018-06-25T12:00:38.903Z,22.8
2018-06-25T12:01:28.964Z,22.8
2018-06-25T12:02:19.662Z,22.8
2018-06-25T12:03:11.599Z,22.8
2018-06-25T12:03:59.965Z,22.8
2018-06-25T12:04:49.481Z,22.8
2018-06-25T12:05:39.520Z,22.8
2018-06-25T12:06:29.325Z,22.8
2018-06-25T12:07:19.792Z,22.8
2018-06-25T12:08:10.320Z,22.8
2018-06-25T12:08:59.832Z,22.8
2018-06-25T12:09:50.423Z,22.8
2018-06-25T12:10:41.583Z,22.8
2018-06-25T12:11:29.760Z,22.8
2018-06-25T12:12:19.949Z,22.8
2018-06-25T12:13:09.647Z,22.8
2018-06-25T12:14:00.455Z,22.8
2018-06-25T12:14:50.789Z,22.8
2018-06-25T12:15:40.837Z,22.8
2018-06-25T12:16:30.632Z,22.8
2018-06-25T12:17:20.446Z,22.8
2018-06-25T12:18:10.314Z,22.8
2018-06-25T12:19:01.530Z,22.8
2018-06-25T12:19:50.487Z,22.8
2018-06-25T12:20:40.951Z,22.8
2018-06-25T12:21:30.779Z,22.8
2018-06-25T12:22:20.874Z,22.8
2018-06-25T12:23:11.721Z,22.8
2018-06-25T12:24:00.671Z,22.8
2018-06-25T12:24:51.312Z,22.8
2018-06-25T12:25:40.829Z,22.8
2018-06-25T12:26:30.840Z,22.8
2018-06-25T12:27:21.231Z,22.8
2018-06-25T12:28:11.786Z,22.8
2018-06-25T12:29:01.320Z,22.8
2018-06-25T12:29:51.922Z,22.8
2018-06-25T12:30:41.242Z,22.8
2018-06-25T12:31:32.086Z,22.8
2018-06-25T12:32:21.593Z,22.8
2018-06-25T12:33:11.379Z,22.8
2018-06-25T12:34:01.972Z,22.8
2018-06-25T12:34:51.478Z,22.8
2018-06-25T12:35:41.885Z,22.8
2018-06-25T12:36:32.435Z,22.8
2018-06-25T12:37:22.511Z,22.8
2018-06-25T12:38:12.571Z,22.8
2018-06-25T12:39:01.756Z,22.8
2018-06-25T12:39:52.155Z,22.8
2018-06-25T12:40:42.197Z,22.8
2018-06-25T12:41:33.728Z,22.8
2018-06-25T12:42:22.921Z,22.8
2018-06-25T12:43:12.828Z,22.8
2018-06-25T12:44:02.223Z,22.8
2018-06-25T12:44:52.801Z,22.8
2018-06-25T12:45:42.040Z,22.8
2018-06-25T12:46:33.252Z,22.8
2018-06-25T12:47:22.235Z,22.9
2018-06-25T12:48:12.806Z,22.8
2018-06-25T12:49:03.168Z,22.8
2018-06-25T12:49:52.892Z,22.9
2018-06-25T12:50:43.279Z,22.9
2018-06-25T12:51:33.333Z,22.9
2018-06-25T12:52:23.728Z,22.8
2018-06-25T12:53:13.478Z,22.9
2018-06-25T12:54:04.072Z,22.9
2018-06-25T12:54:53.613Z,22.9
2018-06-25T12:55:43.126Z,22.9
2018-06-25T12:56:33.163Z,22.9
2018-06-25T12:57:24.075Z,22.9
2018-06-25T12:58:13.032Z,22.9
2018-06-25T12:59:03.407Z,22.9
2018-06-25T12:59:54.312Z,22.9
2018-06-25T13:00:43.991Z,22.9
2018-06-25T13:01:34.322Z,22.9
2018-06-25T13:02:24.156Z,22.9
2018-06-25T13:03:14.216Z,22.9
2018-06-25T13:04:03.521Z,22.9
2018-06-25T13:04:54.374Z,22.9
2018-06-25T13:05:44.673Z,22.9
2018-06-25T13:06:34.989Z,22.9
2018-06-25T13:07:24.240Z,22.9
2018-06-25T13:08:13.778Z,22.9
2018-06-25T13:09:04.266Z,22.9
2018-06-25T13:09:54.194Z,22.9
2018-06-25T13:10:45.096Z,22.9
2018-06-25T13:11:35.132Z,22.9
2018-06-25T13:12:25.247Z,22.9
2018-06-25T13:13:14.707Z,22.9
2018-06-25T13:14:04.751Z,22.9
2018-06-25T13:14:55.410Z,22.9
2018-06-25T13:15:44.630Z,22.9
2018-06-25T13:16:34.501Z,22.9
2018-06-25T13:17:25.636Z,22.9
2018-06-25T13:18:16.390Z,22.9
2018-06-25T13:19:05.164Z,22.9
2018-06-25T13:19:54.655Z,22.9
2018-06-25T13:20:46.893Z,22.9
2018-06-25T13:21:35.350Z,22.9
2018-06-25T13:22:25.209Z,22.9
2018-06-25T13:23:16.042Z,22.9
2018-06-25T13:24:05.816Z,22.9
2018-06-25T13:24:55.841Z,22.9
2018-06-25T13:25:47.886Z,22.9
2018-06-25T13:26:35.155Z,22.9
2018-06-25T13:27:26.373Z,23
2018-06-25T13:28:16.403Z,22.9
2018-06-25T13:29:05.800Z,22.9
2018-06-25T13:29:56.221Z,23
2018-06-25T13:30:46.623Z,22.9
2018-06-25T13:31:36.954Z,22.9
2018-06-25T13:32:26.159Z,22.9
2018-06-25T13:33:16.847Z,22.9
2018-06-25T13:34:06.716Z,23
2018-06-25T13:34:56.968Z,23
2018-06-25T13:35:47.009Z,23
2018-06-25T13:36:36.810Z,23
2018-06-25T13:37:26.821Z,23
2018-06-25T13:38:18.061Z,23
2018-06-25T13:39:07.301Z,23
2018-06-25T13:39:56.473Z,23
2018-06-25T13:40:46.539Z,23
2018-06-25T13:41:36.824Z,23
2018-06-25T13:42:27.285Z,23
2018-06-25T13:43:16.475Z,23
2018-06-25T13:44:07.117Z,23
2018-06-25T13:44:56.862Z,23.1
2018-06-25T13:45:48.073Z,23
2018-06-25T13:46:37.861Z,23.1
2018-06-25T13:47:27.894Z,23.1
2018-06-25T13:48:17.115Z,23.1
2018-06-25T13:49:07.595Z,23.1
2018-06-25T13:49:58.131Z,23.1
2018-06-25T13:50:47.676Z,23.1
2018-06-25T13:51:37.690Z,23.1
2018-06-25T13:52:28.031Z,23.1
2018-06-25T13:53:17.480Z,23.1
2018-06-25T13:54:08.124Z,23.1
2018-06-25T13:54:58.415Z,23.1
2018-06-25T13:55:47.694Z,23.1
2018-06-25T13:56:38.654Z,23.1
2018-06-25T13:57:28.095Z,23.1
2018-06-25T13:58:18.509Z,23.1
2018-06-25T13:59:08.803Z,23.2
2018-06-25T13:59:57.799Z,23.2
2018-06-25T14:00:49.362Z,23.2
2018-06-25T14:01:38.215Z,23.2
2018-06-25T14:02:29.034Z,23.2
2018-06-25T14:03:18.859Z,23.2
2018-06-25T14:04:08.945Z,23.3
2018-06-25T14:04:59.001Z,23.3
2018-06-25T14:05:48.750Z,23.3
2018-06-25T14:06:38.266Z,23.3
2018-06-25T14:07:29.461Z,23.3
2018-06-25T14:08:19.568Z,23.3
2018-06-25T14:09:08.438Z,23.3
2018-06-25T14:09:59.714Z,23.3
2018-06-25T14:10:48.620Z,23.3
2018-06-25T14:11:39.231Z,23.3
2018-06-25T14:12:28.666Z,23.3
2018-06-25T14:13:19.911Z,23.3
2018-06-25T14:14:09.443Z,23.3
2018-06-25T14:14:58.672Z,23.3
2018-06-25T14:15:49.858Z,23.3
2018-06-25T14:16:40.461Z,23.3
2018-06-25T14:17:29.606Z,23.3
2018-06-25T14:18:20.297Z,23.3
2018-06-25T14:19:10.319Z,23.3
2018-06-25T14:20:00.841Z,23.3
2018-06-25T14:20:50.455Z,23.3
2018-06-25T14:21:39.708Z,23.3
2018-06-25T14:22:29.708Z,23.3
2018-06-25T14:23:20.098Z,23.3
2018-06-25T14:24:10.445Z,23.3
2018-06-25T14:25:00.751Z,23.3
2018-06-25T14:25:50.803Z,23.3
2018-06-25T14:26:40.433Z,23.3
2018-06-25T14:27:30.666Z,23.3
2018-06-25T14:28:20.626Z,23.3
2018-06-25T14:29:10.207Z,23.3
2018-06-25T14:30:00.184Z,23.3
2018-06-25T14:30:50.184Z,23.3
2018-06-25T14:31:40.520Z,23.3
2018-06-25T14:32:30.315Z,23.3
2018-06-25T14:33:20.969Z,23.3
2018-06-25T14:34:11.002Z,23.3
2018-06-25T14:35:01.142Z,23.3
2018-06-25T14:35:50.237Z,23.3
2018-06-25T14:36:40.605Z,23.3
2018-06-25T14:37:31.236Z,23.3
2018-06-25T14:38:21.505Z,23.3
2018-06-25T14:39:11.561Z,23.3
2018-06-25T14:40:01.875Z,23.3
2018-06-25T14:40:53.072Z,23.3
2018-06-25T14:41:41.714Z,23.3
2018-06-25T14:42:31.562Z,23.3
2018-06-25T14:43:21.910Z,23.3
2018-06-25T14:44:11.695Z,23.3
2018-06-25T14:45:01.752Z,23.3
2018-06-25T14:45:52.115Z,23.3
2018-06-25T14:46:42.176Z,23.3
2018-06-25T14:47:31.370Z,23.3
2018-06-25T14:48:23.325Z,23.3
2018-06-25T14:49:11.797Z,23.3
2018-06-25T14:50:02.794Z,23.3
2018-06-25T14:50:52.441Z,23.3
2018-06-25T14:51:42.294Z,23.3
2018-06-25T14:52:33.379Z,23.3
2018-06-25T14:53:22.925Z,23.3
2018-06-25T14:54:12.444Z,23.3
2018-06-25T14:55:03.083Z,23.3
2018-06-25T14:55:52.589Z,23.3
2018-06-25T14:56:43.276Z,23.3
2018-06-25T14:57:32.674Z,23.3
2018-06-25T14:58:23.053Z,23.3
2018-06-25T14:59:13.549Z,23.3
2018-06-25T15:00:02.880Z,23.3
2018-06-25T15:00:53.209Z,23.3
2018-06-25T15:01:43.618Z,23.3
2018-06-25T15:02:33.565Z,23.3
2018-06-25T15:03:23.669Z,23.3
2018-06-25T15:04:12.643Z,23.3
2018-06-25T15:05:03.288Z,23.3
2018-06-25T15:05:53.373Z,23.3
2018-06-25T15:06:43.454Z,23.3
2018-06-25T15:07:33.245Z,23.3
2018-06-25T15:08:23.260Z,23.3
2018-06-25T15:09:13.012Z,23.3
2018-06-25T15:10:03.085Z,23.3
2018-06-25T15:10:53.420Z,23.3
2018-06-25T15:12:01.072Z,23.3
2018-06-25T15:12:51.110Z,23.3
2018-06-25T15:13:41.444Z,23.3
2018-06-25T15:14:32.061Z,23.4
2018-06-25T15:15:21.817Z,23.4
2018-06-25T15:16:11.971Z,23.4
2018-06-25T15:17:01.433Z,23.4
2018-06-25T15:17:52.153Z,23.4
2018-06-25T15:18:41.803Z,23.4
2018-06-25T15:19:31.940Z,23.4
2018-06-25T15:20:22.587Z,23.4
2018-06-25T15:21:12.046Z,23.4
2018-06-25T15:22:01.800Z,23.4
2018-06-25T15:22:52.701Z,23.4
2018-06-25T15:23:42.216Z,23.4
2018-06-25T15:24:32.272Z,23.4
2018-06-25T15:25:22.625Z,23.4
2018-06-25T15:26:13.206Z,23.4
2018-06-25T15:27:02.487Z,23.4
2018-06-25T15:27:52.877Z,23.4
2018-06-25T15:28:42.861Z,23.4
2018-06-25T15:29:32.966Z,23.4
2018-06-25T15:30:23.291Z,23.4
2018-06-25T15:31:13.364Z,23.4
2018-06-25T15:32:03.324Z,23.4
2018-06-25T15:32:53.201Z,23.4
2018-06-25T15:33:43.553Z,23.4
2018-06-25T15:34:33.618Z,23.4
2018-06-25T15:35:23.080Z,23.4
2018-06-25T15:36:13.224Z,23.4
2018-06-25T15:37:03.495Z,23.4
2018-06-25T15:37:53.285Z,23.4
2018-06-25T15:38:43.888Z,23.4
2018-06-25T15:39:33.677Z,23.4
2018-06-25T15:40:23.477Z,23.4
2018-06-25T15:41:13.809Z,23.4
2018-06-25T15:42:03.640Z,23.4
2018-06-25T15:42:54.223Z,23.4
2018-06-25T15:43:44.020Z,23.4
2018-06-25T15:44:34.334Z,23.4
2018-06-25T15:45:23.591Z,23.4
2018-06-25T15:46:13.725Z,23.4
2018-06-25T15:47:03.178Z,23.4
2018-06-25T15:47:54.542Z,23.4
2018-06-25T15:48:43.372Z,23.4
2018-06-25T15:49:34.503Z,23.4
2018-06-25T15:50:23.487Z,23.4
2018-06-25T15:51:13.535Z,23.4
2018-06-25T15:52:04.173Z,23.4
2018-06-25T15:52:54.227Z,23.4
2018-06-25T15:53:44.601Z,23.4
2018-06-25T15:54:34.131Z,23.4
2018-06-25T15:55:24.419Z,23.4
2018-06-25T15:56:14.487Z,23.4
2018-06-25T15:57:04.581Z,23.4
2018-06-25T15:57:54.605Z,23.4
2018-06-25T15:58:45.026Z,23.4
2018-06-25T15:59:34.481Z,23.5
2018-06-25T16:00:24.498Z,23.5
2018-06-25T16:01:14.646Z,23.5
2018-06-25T16:02:05.239Z,23.5
2018-06-25T16:02:55.282Z,23.5
2018-06-25T16:03:44.703Z,23.5
2018-06-25T16:04:35.628Z,23.5
2018-06-25T16:05:25.145Z,23.5
2018-06-25T16:06:15.747Z,23.5
2018-06-25T16:07:07.933Z,23.5
2018-06-25T16:07:55.328Z,23.5
2018-06-25T16:08:45.650Z,23.5
2018-06-25T16:09:35.989Z,23.4
2018-06-25T16:10:26.039Z,23.5
2018-06-25T16:11:15.844Z,23.4
2018-06-25T16:12:06.495Z,23.4
2018-06-25T16:12:56.528Z,23.5
2018-06-25T16:13:46.332Z,23.4
2018-06-25T16:14:36.434Z,23.4
2018-06-25T16:15:26.170Z,23.4
2018-06-25T16:16:16.754Z,23.4
2018-06-25T16:17:06.016Z,23.4
2018-06-25T16:17:56.183Z,23.4
2018-06-25T16:18:46.444Z,23.4
2018-06-25T16:19:36.508Z,23.4
2018-06-25T16:20:27.077Z,23.4
2018-06-25T16:21:16.874Z,23.5
2018-06-25T16:22:06.419Z,23.5
2018-06-25T16:22:56.851Z,23.4
2018-06-25T16:23:45.956Z,23.5
2018-06-25T16:24:36.545Z,23.5
2018-06-25T16:25:27.251Z,23.5
2018-06-25T16:26:16.408Z,23.5
2018-06-25T16:27:06.765Z,23.5
2018-06-25T16:27:57.153Z,23.5
2018-06-25T16:28:48.754Z,23.5
2018-06-25T16:29:36.926Z,23.5
2018-06-25T16:30:27.041Z,23.5
2018-06-25T16:31:17.113Z,23.5
2018-06-25T16:32:08.003Z,23.6
2018-06-25T16:32:58.090Z,23.5
2018-06-25T16:33:47.815Z,23.5
2018-06-25T16:34:37.043Z,23.5
2018-06-25T16:35:27.477Z,23.6
2018-06-25T16:36:17.749Z,23.6
2018-06-25T16:37:08.152Z,23.5
2018-06-25T16:37:57.597Z,23.6
2018-06-25T16:38:48.268Z,23.6
2018-06-25T16:39:38.322Z,23.6
2018-06-25T16:40:28.639Z,23.6
2018-06-25T16:41:17.548Z,23.6
2018-06-25T16:42:08.490Z,23.6
2018-06-25T16:42:58.299Z,23.6
2018-06-25T16:43:48.842Z,23.6
2018-06-25T16:44:38.687Z,23.6
2018-06-25T16:45:28.245Z,23.6
2018-06-25T16:46:19.060Z,23.6
2018-06-25T16:47:08.571Z,23.6
2018-06-25T16:47:58.623Z,23.6
2018-06-25T16:48:49.283Z,23.6
2018-06-25T16:49:39.310Z,23.6
2018-06-25T16:50:29.385Z,23.6
2018-06-25T16:51:18.946Z,23.6
2018-06-25T16:52:08.954Z,23.6
2018-06-25T16:52:59.013Z,23.6
2018-06-25T16:53:48.509Z,23.6
2018-06-25T16:54:39.483Z,23.6
2018-06-25T16:55:29.456Z,23.6
2018-06-25T16:56:18.811Z,23.6
2018-06-25T16:57:09.401Z,23.6
2018-06-25T16:57:59.949Z,23.6
2018-06-25T16:58:49.520Z,23.6
2018-06-25T16:59:39.690Z,23.6
2018-06-25T17:00:29.684Z,23.6
2018-06-25T17:01:19.471Z,23.6
2018-06-25T17:02:06.659Z,23.6
2018-06-25T17:02:59.517Z,23.6
2018-06-25T17:03:49.461Z,23.6
2018-06-25T17:04:39.448Z,23.6
2018-06-25T17:05:29.793Z,23.6
2018-06-25T17:06:19.262Z,23.6
2018-06-25T17:07:09.869Z,23.6
2018-06-25T17:07:59.856Z,23.6
2018-06-25T17:08:50.075Z,23.6
2018-06-25T17:09:39.805Z,23.6
2018-06-25T17:10:30.243Z,23.6
2018-06-25T17:11:21.022Z,23.6
2018-06-25T17:12:10.781Z,23.5
2018-06-25T17:13:00.517Z,23.5
2018-06-25T17:13:50.299Z,23.6
2018-06-25T17:14:41.234Z,23.5
2018-06-25T17:15:30.440Z,23.6
2018-06-25T17:16:20.821Z,23.6
2018-06-25T17:17:11.151Z,23.5
2018-06-25T17:18:01.199Z,23.5
2018-06-25T17:18:50.951Z,23.5
2018-06-25T17:19:40.476Z,23.5
2018-06-25T17:20:31.373Z,23.5
2018-06-25T17:21:20.977Z,23.5
2018-06-25T17:22:12.365Z,23.5
2018-06-25T17:23:01.269Z,23.5
2018-06-25T17:24:41.956Z,23.5
2018-06-25T17:25:32.076Z,23.5
2018-06-25T17:26:21.843Z,23.5
2018-06-25T17:27:11.327Z,23.5
2018-06-25T17:28:02.213Z,23.5
2018-06-25T17:28:52.847Z,23.5
2018-06-25T17:29:41.794Z,23.5
2018-06-25T17:30:31.886Z,23.5
2018-06-25T17:31:21.953Z,23.5
2018-06-25T17:32:12.547Z,23.5
2018-06-25T17:33:02.664Z,23.5
2018-06-25T17:33:52.664Z,23.5
2018-06-25T17:34:42.741Z,23.5
2018-06-25T17:35:32.301Z,23.5
2018-06-25T17:36:21.159Z,23.5
2018-06-25T17:37:11.816Z,23.5
2018-06-25T17:38:03.053Z,23.5
2018-06-25T17:38:52.831Z,23.5
2018-06-25T17:39:42.596Z,23.5
2018-06-25T17:40:32.932Z,23.5
2018-06-25T17:41:22.978Z,23.5
2018-06-25T17:42:12.775Z,23.5
2018-06-25T17:43:02.336Z,23.5
2018-06-25T17:43:53.462Z,23.5
2018-06-25T17:44:42.958Z,23.5
2018-06-25T17:45:33.299Z,23.5
2018-06-25T17:46:23.077Z,23.5
2018-06-25T17:47:13.433Z,23.5
2018-06-25T17:48:03.506Z,23.5
2018-06-25T17:48:53.550Z,23.5
2018-06-25T17:49:43.597Z,23.5
2018-06-25T17:50:33.377Z,23.5
2018-06-25T17:51:23.779Z,23.4
2018-06-25T17:52:13.573Z,23.5
2018-06-25T17:53:03.873Z,23.4
2018-06-25T17:53:54.194Z,23.4
2018-06-25T17:54:44.269Z,23.5
2018-06-25T17:55:34.055Z,23.5
2018-06-25T17:56:24.459Z,23.4
2018-06-25T17:57:13.913Z,23.4
2018-06-25T17:58:04.225Z,23.5
2018-06-25T17:58:54.060Z,23.4
2018-06-25T17:59:44.395Z,23.4
2018-06-25T18:00:33.411Z,23.5
2018-06-25T18:01:23.543Z,23.4
2018-06-25T18:02:14.327Z,23.4
2018-06-25T18:03:04.365Z,23.4
2018-06-25T18:03:54.844Z,23.4
2018-06-25T18:04:44.193Z,23.4
2018-06-25T18:05:35.105Z,23.4
2018-06-25T18:06:24.899Z,23.4
2018-06-25T18:07:15.245Z,23.4
2018-06-25T18:08:04.466Z,23.4
2018-06-25T18:08:54.523Z,23.4
2018-06-25T18:09:45.107Z,23.4
2018-06-25T18:10:35.174Z,23.4
2018-06-25T18:11:25.287Z,23.4
2018-06-25T18:12:15.026Z,23.4
2018-06-25T18:13:05.378Z,23.4
2018-06-25T18:13:55.408Z,23.4
2018-06-25T18:14:44.170Z,23.4
2018-06-25T18:15:34.329Z,23.4
2018-06-25T18:16:24.444Z,23.4
2018-06-25T18:17:14.704Z,23.4
2018-06-25T18:18:04.734Z,23.4
2018-06-25T18:18:55.428Z,23.4
2018-06-25T18:19:45.421Z,23.4
2018-06-25T18:20:35.800Z,23.4
2018-06-25T18:21:24.958Z,23.4
2018-06-25T18:22:15.636Z,23.4
2018-06-25T18:23:05.382Z,23.4
2018-06-25T18:23:55.773Z,23.4
2018-06-25T18:24:45.506Z,23.4
2018-06-25T18:25:35.311Z,23.4
2018-06-25T18:26:25.627Z,23.4
2018-06-25T18:27:16.431Z,23.4
2018-06-25T18:28:05.982Z,23.4
2018-06-25T18:28:56.591Z,23.4
2018-06-25T18:29:46.903Z,23.4
2018-06-25T18:30:36.150Z,23.4
2018-06-25T18:31:26.417Z,23.4
2018-06-25T18:32:16.539Z,23.4
2018-06-25T18:33:07.217Z,23.4
2018-06-25T18:33:56.656Z,23.4
2018-06-25T18:34:47.308Z,23.4
2018-06-25T18:35:36.855Z,23.4
2018-06-25T18:36:27.149Z,23.4
2018-06-25T18:37:17.208Z,23.4
2018-06-25T18:38:06.779Z,23.4
2018-06-25T18:38:57.088Z,23.4
2018-06-25T18:39:47.250Z,23.4
2018-06-25T18:40:36.820Z,23.4
2018-06-25T18:41:27.606Z,23.4
2018-06-25T18:42:17.150Z,23.4
2018-06-25T18:43:08.020Z,23.4
2018-06-25T18:43:57.209Z,23.4
2018-06-25T18:44:48.430Z,23.4
2018-06-25T18:45:37.836Z,23.4
2018-06-25T18:46:27.664Z,23.4
2018-06-25T18:47:18.300Z,23.4
2018-06-25T18:48:08.023Z,23.4
2018-06-25T18:48:58.436Z,23.4
2018-06-25T18:49:47.929Z,23.4
2018-06-25T18:50:37.625Z,23.4
2018-06-25T18:51:27.798Z,23.4
2018-06-25T18:52:18.343Z,23.4
2018-06-25T18:53:08.683Z,23.4
2018-06-25T18:53:58.828Z,23.4
2018-06-25T18:54:48.850Z,23.4
2018-06-25T18:55:38.608Z,23.4
2018-06-25T18:56:28.676Z,23.4
2018-06-25T18:57:19.326Z,23.4
2018-06-25T18:58:08.210Z,23.4
2018-06-25T18:58:58.584Z,23.4
2018-06-25T18:59:49.231Z,23.4
2018-06-25T19:00:38.436Z,23.4
2018-06-25T19:01:47.721Z,23.4
2018-06-25T19:02:19.102Z,23.4
2018-06-25T19:03:09.250Z,23.4
2018-06-25T19:03:58.960Z,23.4
2018-06-25T19:04:49.025Z,23.4
2018-06-25T19:05:40.024Z,23.4
2018-06-25T19:06:29.185Z,23.4
2018-06-25T19:07:19.801Z,23.4
2018-06-25T19:08:09.605Z,23.4
2018-06-25T19:08:59.344Z,23.4
2018-06-25T19:09:49.112Z,23.4
2018-06-25T19:10:38.915Z,23.4
2018-06-25T19:11:28.711Z,23.4
2018-06-25T19:12:20.176Z,23.5
2018-06-25T19:13:09.201Z,23.5
2018-06-25T19:13:59.323Z,23.5
2018-06-25T19:14:49.875Z,23.5
2018-06-25T19:15:39.643Z,23.5
2018-06-25T19:16:29.393Z,23.5
2018-06-25T19:17:20.343Z,23.5
2018-06-25T19:18:09.590Z,23.5
2018-06-25T19:18:59.868Z,23.5
2018-06-25T19:19:50.755Z,23.5
2018-06-25T19:20:40.885Z,23.5
2018-06-25T19:21:30.017Z,23.6
2018-06-25T19:22:20.985Z,23.6
2018-06-25T19:23:10.463Z,23.6
2018-06-25T19:24:00.523Z,23.6
2018-06-25T19:24:49.847Z,23.6
2018-06-25T19:25:40.731Z,23.6
2018-06-25T19:26:31.493Z,23.6
2018-06-25T19:27:21.536Z,23.6
2018-06-25T19:28:11.122Z,23.6
2018-06-25T19:29:00.389Z,23.6
2018-06-25T19:29:51.410Z,23.6
2018-06-25T19:30:41.021Z,23.6
2018-06-25T19:31:31.178Z,23.6
2018-06-25T19:32:21.230Z,23.6
2018-06-25T19:33:11.500Z,23.6
2018-06-25T19:34:01.002Z,23.6
2018-06-25T19:34:51.618Z,23.6
2018-06-25T19:35:41.632Z,23.6
2018-06-25T19:36:31.754Z,23.6
2018-06-25T19:37:21.520Z,23.6
2018-06-25T19:38:11.540Z,23.6
2018-06-25T19:39:01.939Z,23.6
2018-06-25T19:39:51.720Z,23.6
2018-06-25T19:40:41.777Z,23.6
2018-06-25T19:41:31.266Z,23.6
2018-06-25T19:42:22.180Z,23.6
2018-06-25T19:43:12.233Z,23.6
2018-06-25T19:44:02.076Z,23.6
2018-06-25T19:44:51.769Z,23.6
2018-06-25T19:45:42.476Z,23.6
2018-06-25T19:46:32.870Z,23.6
2018-06-25T19:47:22.635Z,23.6
2018-06-25T19:48:11.854Z,23.6
2018-06-25T19:49:02.351Z,23.6
2018-06-25T19:49:52.786Z,23.6
2018-06-25T19:50:42.580Z,23.6
2018-06-25T19:51:32.918Z,23.6
2018-06-25T19:52:23.441Z,23.6
2018-06-25T19:53:13.020Z,23.6
2018-06-25T19:54:02.596Z,23.6
2018-06-25T19:54:52.393Z,23.6
2018-06-25T19:55:42.945Z,23.6
2018-06-25T19:56:32.672Z,23.6
2018-06-25T19:57:23.568Z,23.6
2018-06-25T19:58:12.861Z,23.6
2018-06-25T19:59:02.962Z,23.6
2018-06-25T19:59:53.420Z,23.6
2018-06-25T20:00:42.754Z,23.6
2018-06-25T20:01:33.435Z,23.6
2018-06-25T20:02:24.026Z,23.6
2018-06-25T20:03:13.828Z,23.6
2018-06-25T20:04:04.173Z,23.6
2018-06-25T20:04:53.702Z,23.6
2018-06-25T20:05:43.990Z,23.6
2018-06-25T20:06:34.127Z,23.6
2018-06-25T20:07:23.582Z,23.6
2018-06-25T20:08:13.741Z,23.6
2018-06-25T20:09:04.272Z,23.6
2018-06-25T20:09:53.797Z,23.6
2018-06-25T20:10:43.849Z,23.6
2018-06-25T20:11:33.873Z,23.6
2018-06-25T20:12:23.694Z,23.6
2018-06-25T20:13:14.117Z,23.6
2018-06-25T20:14:04.349Z,23.6
2018-06-25T20:14:53.974Z,23.6
2018-06-25T20:15:45.130Z,23.6
2018-06-25T20:16:35.170Z,23.6
2018-06-25T20:17:24.836Z,23.6
2018-06-25T20:18:14.693Z,23.6
2018-06-25T20:19:05.039Z,23.6
2018-06-25T20:19:54.938Z,23.6
2018-06-25T20:20:44.908Z,23.6